sensor_id;sensor_type;location;lat;lon;timestamp;temperature;humidity
20432;DHT22;10375;49.136;10.366;2023-12-29T11:49:11;10.20;99.90
20432;DHT22;10375;49.136;10.366;2023-12-29T11:51:49;10.90;99.90
20432;DHT22;10375;49.136;10.366;2023-12-29T11:54:26;10.80;99.90
20432;DHT22;10375;49.136;10.366;2023-12-29T11:56:59;10.60;99.90
20432;DHT22;10375;49.136;10.366;2023-12-29T11:59:30;10.60;99.90
20432;DHT22;10375;49.136;10.366;2023-12-29T12:02:00;10.50;99.90
20432;DHT22;10375;49.136;10.366;2023-12-29T12:04:44;10.40;99.90
20432;DHT22;10375;49.136;10.366;2023-12-29T12:09:51;10.10;99.90
20432;DHT22;10375;49.136;10.366;2023-12-29T12:12:45;10.20;99.90
20432;DHT22;10375;49.136;10.366;2023-12-29T12:18:06;10.30;99.90
20432;DHT22;10375;49.136;10.366;2023-12-29T12:20:38;10.40;99.90
20432;DHT22;10375;49.136;10.366;2023-12-29T12:23:20;10.50;99.90
20432;DHT22;10375;49.136;10.366;2023-12-29T12:25:58;10.70;99.90
20432;DHT22;10375;49.136;10.366;2023-12-29T12:28:38;10.80;99.90
20432;DHT22;10375;49.136;10.366;2023-12-29T12:31:15;10.90;99.90
20432;DHT22;10375;49.136;10.366;2023-12-29T12:34:37;11.10;99.90
20432;DHT22;10375;49.136;10.366;2023-12-29T12:37:08;11.20;99.90
20432;DHT22;10375;49.136;10.366;2023-12-29T12:40:24;11.30;99.90
20432;DHT22;10375;49.136;10.366;2023-12-29T12:43:24;11.40;99.90
20432;DHT22;10375;49.136;10.366;2023-12-29T12:46:00;11.40;99.90
20432;DHT22;10375;49.136;10.366;2023-12-29T12:48:45;11.40;99.90
20432;DHT22;10375;49.136;10.366;2023-12-29T12:51:14;11.40;99.90
20432;DHT22;10375;49.136;10.366;2023-12-29T12:53:42;11.50;99.90
20432;DHT22;10375;49.136;10.366;2023-12-29T12:59:03;11.30;99.90
20432;DHT22;10375;49.136;10.366;2023-12-29T13:01:35;11.10;99.90
20432;DHT22;10375;49.136;10.366;2023-12-29T13:04:04;11.00;99.90
20432;DHT22;10375;49.136;10.366;2023-12-29T13:06:33;10.80;99.90
20432;DHT22;10375;49.136;10.366;2023-12-29T13:09:01;10.70;99.90
20432;DHT22;10375;49.136;10.366;2023-12-29T13:11:44;10.60;99.90
20432;DHT22;10375;49.136;10.366;2023-12-29T13:14:22;10.50;99.90
20432;DHT22;10375;49.136;10.366;2023-12-29T13:16:50;10.50;99.90
20432;DHT22;10375;49.136;10.366;2023-12-29T13:22:14;10.70;99.90
20432;DHT22;10375;49.136;10.366;2023-12-29T13:24:45;10.70;99.90
20432;DHT22;10375;49.136;10.366;2023-12-29T13:27:14;10.80;99.90
20432;DHT22;10375;49.136;10.366;2023-12-29T13:29:43;10.80;99.90
20432;DHT22;10375;49.136;10.366;2023-12-29T13:32:22;10.80;99.90
20432;DHT22;10375;49.136;10.366;2023-12-29T13:35:23;10.70;99.90
20432;DHT22;10375;49.136;10.366;2023-12-29T13:38:05;10.70;99.90
20432;DHT22;10375;49.136;10.366;2023-12-29T13:40:42;10.70;99.90
20432;DHT22;10375;49.136;10.366;2023-12-29T13:43:13;10.70;99.90
20432;DHT22;10375;49.136;10.366;2023-12-29T13:45:43;10.70;99.90
20432;DHT22;10375;49.136;10.366;2023-12-29T13:48:11;10.60;99.90
20432;DHT22;10375;49.136;10.366;2023-12-29T13:50:40;10.60;99.90
20432;DHT22;10375;49.136;10.366;2023-12-29T13:53:17;10.50;99.90
20432;DHT22;10375;49.136;10.366;2023-12-29T13:55:46;10.40;99.90
20432;DHT22;10375;49.136;10.366;2023-12-29T13:58:14;10.40;99.90
20432;DHT22;10375;49.136;10.366;2023-12-29T14:00:43;10.30;99.90
20432;DHT22;10375;49.136;10.366;2023-12-29T14:07:01;10.30;99.90
20432;DHT22;10375;49.136;10.366;2023-12-29T14:09:29;10.20;99.90
20432;DHT22;10375;49.136;10.366;2023-12-29T14:11:57;10.20;99.90
20432;DHT22;10375;49.136;10.366;2023-12-29T14:14:25;10.20;99.90
20432;DHT22;10375;49.136;10.366;2023-12-29T14:16:53;10.20;99.90
20432;DHT22;10375;49.136;10.366;2023-12-29T14:19:34;10.20;99.90
20432;DHT22;10375;49.136;10.366;2023-12-29T14:22:02;10.30;99.90
20432;DHT22;10375;49.136;10.366;2023-12-29T14:24:30;10.30;99.90
20432;DHT22;10375;49.136;10.366;2023-12-29T14:27:05;10.20;99.90
20432;DHT22;10375;49.136;10.366;2023-12-29T14:29:40;10.20;99.90
20432;DHT22;10375;49.136;10.366;2023-12-29T14:32:10;10.20;99.90
20432;DHT22;10375;49.136;10.366;2023-12-29T14:34:38;10.20;99.90
20432;DHT22;10375;49.136;10.366;2023-12-29T14:37:20;10.10;99.90
20432;DHT22;10375;49.136;10.366;2023-12-29T14:39:51;10.10;99.90
20432;DHT22;10375;49.136;10.366;2023-12-29T14:42:19;10.00;99.90
20432;DHT22;10375;49.136;10.366;2023-12-29T14:44:47;10.00;99.90
20432;DHT22;10375;49.136;10.366;2023-12-29T14:47:16;10.00;99.90
20432;DHT22;10375;49.136;10.366;2023-12-29T14:49:44;10.00;99.90
20432;DHT22;10375;49.136;10.366;2023-12-29T14:52:39;9.90;99.90
20432;DHT22;10375;49.136;10.366;2023-12-29T14:59:16;9.80;99.90
20432;DHT22;10375;49.136;10.366;2023-12-29T15:02:56;9.70;99.90
20432;DHT22;10375;49.136;10.366;2023-12-29T15:06:15;9.60;99.90
20432;DHT22;10375;49.136;10.366;2023-12-29T15:08:43;9.50;99.90
20432;DHT22;10375;49.136;10.366;2023-12-29T15:11:11;9.50;99.90
20432;DHT22;10375;49.136;10.366;2023-12-29T15:20:36;9.00;99.90
20432;DHT22;10375;49.136;10.366;2023-12-29T15:23:03;8.90;99.90
20432;DHT22;10375;49.136;10.366;2023-12-29T15:25:34;8.80;99.90
20432;DHT22;10375;49.136;10.366;2023-12-29T15:28:11;8.80;99.90
20432;DHT22;10375;49.136;10.366;2023-12-29T15:30:45;8.80;99.90
20432;DHT22;10375;49.136;10.366;2023-12-29T15:33:25;8.70;99.90
20432;DHT22;10375;49.136;10.366;2023-12-29T15:36:15;8.70;99.90
20432;DHT22;10375;49.136;10.366;2023-12-29T15:39:16;8.80;99.90
20432;DHT22;10375;49.136;10.366;2023-12-29T15:41:45;8.80;99.90
20432;DHT22;10375;49.136;10.366;2023-12-29T15:44:14;8.70;99.90
20432;DHT22;10375;49.136;10.366;2023-12-29T15:47:18;8.70;99.90
20432;DHT22;10375;49.136;10.366;2023-12-29T15:50:09;8.80;99.90
20432;DHT22;10375;49.136;10.366;2023-12-29T15:55:35;8.90;99.90
20432;DHT22;10375;49.136;10.366;2023-12-29T15:58:51;8.90;99.90
20432;DHT22;10375;49.136;10.366;2023-12-29T16:01:27;9.00;99.90
20432;DHT22;10375;49.136;10.366;2023-12-29T16:04:20;9.00;99.90
20432;DHT22;10375;49.136;10.366;2023-12-29T16:09:43;9.00;99.90
20432;DHT22;10375;49.136;10.366;2023-12-29T16:13:01;8.90;99.90
20432;DHT22;10375;49.136;10.366;2023-12-29T16:15:34;8.80;99.90
20432;DHT22;10375;49.136;10.366;2023-12-29T16:18:29;8.80;99.90
20432;DHT22;10375;49.136;10.366;2023-12-29T16:34:27;8.70;99.90
20432;DHT22;10375;49.136;10.366;2023-12-29T16:36:57;8.70;99.90
20432;DHT22;10375;49.136;10.366;2023-12-29T16:39:25;8.60;99.90
20432;DHT22;10375;49.136;10.366;2023-12-29T16:51:13;8.40;99.90
20432;DHT22;10375;49.136;10.366;2023-12-29T16:54:03;8.30;99.90
20432;DHT22;10375;49.136;10.366;2023-12-29T16:57:04;8.20;99.90
20432;DHT22;10375;49.136;10.366;2023-12-29T16:59:31;8.20;99.90
20432;DHT22;10375;49.136;10.366;2023-12-29T17:01:59;8.20;99.90
20432;DHT22;10375;49.136;10.366;2023-12-29T17:04:30;8.10;99.90
20432;DHT22;10375;49.136;10.366;2023-12-29T17:06:59;8.00;99.90
20432;DHT22;10375;49.136;10.366;2023-12-29T17:09:26;8.00;99.90
20432;DHT22;10375;49.136;10.366;2023-12-29T17:12:18;7.90;99.90
20432;DHT22;10375;49.136;10.366;2023-12-29T17:14:48;8.00;99.90
20432;DHT22;10375;49.136;10.366;2023-12-29T17:17:15;8.00;99.90
20432;DHT22;10375;49.136;10.366;2023-12-29T17:19:56;7.90;99.90
20432;DHT22;10375;49.136;10.366;2023-12-29T17:22:49;7.90;99.90
20432;DHT22;10375;49.136;10.366;2023-12-29T17:25:30;8.00;99.90
20432;DHT22;10375;49.136;10.366;2023-12-29T17:28:11;8.00;99.90
20432;DHT22;10375;49.136;10.366;2023-12-29T17:30:39;8.00;99.90
20432;DHT22;10375;49.136;10.366;2023-12-29T17:33:06;7.90;99.90
20432;DHT22;10375;49.136;10.366;2023-12-29T17:35:34;7.90;99.90
20432;DHT22;10375;49.136;10.366;2023-12-29T17:42:25;7.90;99.90
20432;DHT22;10375;49.136;10.366;2023-12-29T17:49:26;7.90;99.90
20432;DHT22;10375;49.136;10.366;2023-12-29T17:51:55;7.90;99.90
20432;DHT22;10375;49.136;10.366;2023-12-29T17:57:39;8.00;99.90
20432;DHT22;10375;49.136;10.366;2023-12-29T18:00:49;8.00;99.90
20432;DHT22;10375;49.136;10.366;2023-12-29T18:03:33;8.00;99.90
20432;DHT22;10375;49.136;10.366;2023-12-29T18:06:12;7.90;99.90
20432;DHT22;10375;49.136;10.366;2023-12-29T18:09:54;8.00;99.90
20432;DHT22;10375;49.136;10.366;2023-12-29T18:15:56;8.00;99.90
20432;DHT22;10375;49.136;10.366;2023-12-29T18:36:09;7.90;99.90
20432;DHT22;10375;49.136;10.366;2023-12-29T18:39:47;7.90;99.90
20432;DHT22;10375;49.136;10.366;2023-12-29T18:42:32;8.00;99.90
20432;DHT22;10375;49.136;10.366;2023-12-29T18:53:22;7.80;99.90
20432;DHT22;10375;49.136;10.366;2023-12-29T18:59:27;7.90;99.90
20432;DHT22;10375;49.136;10.366;2023-12-29T19:10:10;7.80;99.90
20432;DHT22;10375;49.136;10.366;2023-12-29T19:12:39;7.60;99.90
20432;DHT22;10375;49.136;10.366;2023-12-29T19:15:10;7.60;99.90
20432;DHT22;10375;49.136;10.366;2023-12-29T19:21:29;7.50;99.90
20432;DHT22;10375;49.136;10.366;2023-12-29T19:24:56;7.40;99.90
20432;DHT22;10375;49.136;10.366;2023-12-29T19:28:11;7.40;99.90
20432;DHT22;10375;49.136;10.366;2023-12-29T19:31:08;7.40;99.90
20432;DHT22;10375;49.136;10.366;2023-12-29T19:54:55;7.20;99.90
20432;DHT22;10375;49.136;10.366;2023-12-29T20:01:07;7.20;99.90
20432;DHT22;10375;49.136;10.366;2023-12-29T20:11:26;7.20;99.90
20432;DHT22;10375;49.136;10.366;2023-12-29T20:14:37;7.20;99.90
20432;DHT22;10375;49.136;10.366;2023-12-29T20:17:06;7.20;99.90
20432;DHT22;10375;49.136;10.366;2023-12-29T20:19:35;7.20;99.90
20432;DHT22;10375;49.136;10.366;2023-12-29T20:22:19;7.10;99.90
20432;DHT22;10375;49.136;10.366;2023-12-29T20:24:49;7.10;99.90
20432;DHT22;10375;49.136;10.366;2023-12-29T20:27:16;7.30;99.90
20432;DHT22;10375;49.136;10.366;2023-12-29T20:30:18;7.30;99.90
20432;DHT22;10375;49.136;10.366;2023-12-29T20:53:02;7.00;99.90
20432;DHT22;10375;49.136;10.366;2023-12-29T20:56:35;6.90;99.90
20432;DHT22;10375;49.136;10.366;2023-12-29T21:11:19;7.20;99.90
20432;DHT22;10375;49.136;10.366;2023-12-29T21:13:48;7.30;99.90
20432;DHT22;10375;49.136;10.366;2023-12-29T21:16:19;7.30;99.90
20432;DHT22;10375;49.136;10.366;2023-12-29T21:18:49;7.40;99.90
20432;DHT22;10375;49.136;10.366;2023-12-29T21:21:17;7.50;99.90
20432;DHT22;10375;49.136;10.366;2023-12-29T21:23:52;7.50;99.90
20432;DHT22;10375;49.136;10.366;2023-12-29T21:26:40;7.70;99.90
20432;DHT22;10375;49.136;10.366;2023-12-29T21:29:18;7.70;99.90
20432;DHT22;10375;49.136;10.366;2023-12-29T21:31:46;7.70;99.90
20432;DHT22;10375;49.136;10.366;2023-12-29T21:34:14;7.70;99.90
20432;DHT22;10375;49.136;10.366;2023-12-29T21:36:52;7.70;99.90
20432;DHT22;10375;49.136;10.366;2023-12-29T21:39:19;7.70;99.90
20432;DHT22;10375;49.136;10.366;2023-12-29T21:41:49;7.80;99.90
20432;DHT22;10375;49.136;10.366;2023-12-29T21:44:24;7.80;99.90
20432;DHT22;10375;49.136;10.366;2023-12-29T21:46:51;7.80;99.90
20432;DHT22;10375;49.136;10.366;2023-12-29T21:49:18;7.80;99.90
20432;DHT22;10375;49.136;10.366;2023-12-29T21:51:46;7.80;99.90
20432;DHT22;10375;49.136;10.366;2023-12-29T22:05:01;7.80;99.90
20432;DHT22;10375;49.136;10.366;2023-12-29T22:07:43;7.80;99.90
20432;DHT22;10375;49.136;10.366;2023-12-29T22:10:10;7.70;99.90
20432;DHT22;10375;49.136;10.366;2023-12-29T22:12:38;7.70;99.90
20432;DHT22;10375;49.136;10.366;2023-12-29T22:15:17;7.70;99.90
20432;DHT22;10375;49.136;10.366;2023-12-29T22:17:45;7.70;99.90
20432;DHT22;10375;49.136;10.366;2023-12-29T22:20:12;7.70;99.90
20432;DHT22;10375;49.136;10.366;2023-12-29T22:22:41;7.70;99.90
20432;DHT22;10375;49.136;10.366;2023-12-29T22:25:16;7.60;99.90
20432;DHT22;10375;49.136;10.366;2023-12-29T22:27:43;7.50;99.90
20432;DHT22;10375;49.136;10.366;2023-12-29T22:30:10;7.50;99.90
20432;DHT22;10375;49.136;10.366;2023-12-29T22:32:39;7.50;99.90
20432;DHT22;10375;49.136;10.366;2023-12-29T22:35:07;7.30;99.90
20432;DHT22;10375;49.136;10.366;2023-12-29T22:37:36;7.30;99.90
20432;DHT22;10375;49.136;10.366;2023-12-29T22:40:05;7.30;99.90
20432;DHT22;10375;49.136;10.366;2023-12-29T22:42:38;7.20;99.90
20432;DHT22;10375;49.136;10.366;2023-12-29T22:45:08;7.20;99.90
20432;DHT22;10375;49.136;10.366;2023-12-29T22:47:35;7.20;99.90
20432;DHT22;10375;49.136;10.366;2023-12-29T22:50:02;7.30;99.90
20432;DHT22;10375;49.136;10.366;2023-12-29T22:52:30;7.20;99.90
20432;DHT22;10375;49.136;10.366;2023-12-29T22:55:06;7.20;99.90
20432;DHT22;10375;49.136;10.366;2023-12-29T22:57:34;7.20;99.90
20432;DHT22;10375;49.136;10.366;2023-12-29T23:00:01;7.10;99.90
20432;DHT22;10375;49.136;10.366;2023-12-29T23:02:29;7.00;99.90
20432;DHT22;10375;49.136;10.366;2023-12-29T23:04:57;6.90;99.90
20432;DHT22;10375;49.136;10.366;2023-12-29T23:07:24;6.80;99.90
20432;DHT22;10375;49.136;10.366;2023-12-29T23:10:01;6.80;99.90
20432;DHT22;10375;49.136;10.366;2023-12-29T23:12:46;6.80;99.90
20432;DHT22;10375;49.136;10.366;2023-12-29T23:15:13;6.70;99.90
20432;DHT22;10375;49.136;10.366;2023-12-29T23:17:40;6.70;99.90
20432;DHT22;10375;49.136;10.366;2023-12-29T23:20:07;6.70;99.90
20432;DHT22;10375;49.136;10.366;2023-12-29T23:22:36;6.60;99.90
20432;DHT22;10375;49.136;10.366;2023-12-29T23:25:04;6.60;99.90
20432;DHT22;10375;49.136;10.366;2023-12-29T23:27:32;6.50;99.90
20432;DHT22;10375;49.136;10.366;2023-12-29T23:29:59;6.50;99.90
20432;DHT22;10375;49.136;10.366;2023-12-29T23:32:26;6.50;99.90
20432;DHT22;10375;49.136;10.366;2023-12-29T23:34:54;6.40;99.90
20432;DHT22;10375;49.136;10.366;2023-12-29T23:37:26;6.40;99.90
20432;DHT22;10375;49.136;10.366;2023-12-29T23:39:53;6.30;99.90
20432;DHT22;10375;49.136;10.366;2023-12-29T23:42:20;6.30;99.90
20432;DHT22;10375;49.136;10.366;2023-12-29T23:44:47;6.30;99.90
20432;DHT22;10375;49.136;10.366;2023-12-29T23:47:15;6.40;99.90
20432;DHT22;10375;49.136;10.366;2023-12-29T23:49:42;6.50;99.90
20432;DHT22;10375;49.136;10.366;2023-12-29T23:52:11;6.60;99.90
20432;DHT22;10375;49.136;10.366;2023-12-29T23:54:38;6.60;99.90
20432;DHT22;10375;49.136;10.366;2023-12-29T23:57:05;6.70;99.90
20432;DHT22;10375;49.136;10.366;2023-12-29T23:59:33;6.70;99.90
